SWA878 KBWI-KDTW
Flight info
| Callsign | SWA878 |
|---|---|
| Flight time | 1h 20m |
| Altitude | 38000 |
| Route | LINSE2 MCRAY Q178 KOZAR BONZZ2 |
| Aircraft | B38M/M-SADE2E3GHIJ4J7P2RWZ/LB1D1 |
Departure
| Time | 2026-05-07 08:55 |
|---|---|
| Airport | Baltimore/Washington International Thurgood Marshall Airport (KBWI) |
Arrival
| Time | 2026-05-07 10:16 |
|---|---|
| Airport | Detroit Metropolitan Wayne County Airport (KDTW) |
| Time | Latitude | Longitude | Altitude | Speed | Heading |
|---|---|---|---|---|---|
| 2026-05-07 08:29 | 39.17753 | -76.67095 | 158 ft | 0 kts | 85° |
| 2026-05-07 08:44 | 39.17753 | -76.67100 | 158 ft | 3 kts | 85° |
| 2026-05-07 08:45 | 39.17748 | -76.67133 | 158 ft | 3 kts | 81° |
| 2026-05-07 08:45 | 39.17747 | -76.67162 | 158 ft | 4 kts | 100° |
| 2026-05-07 08:45 | 39.17757 | -76.67192 | 157 ft | 4 kts | 130° |
| 2026-05-07 08:45 | 39.17771 | -76.67209 | 157 ft | 1 kts | 144° |
| 2026-05-07 08:46 | 39.17774 | -76.67211 | 157 ft | 0 kts | 144° |
| 2026-05-07 08:49 | 39.17772 | -76.67210 | 157 ft | 2 kts | 144° |
| 2026-05-07 08:49 | 39.17738 | -76.67179 | 158 ft | 10 kts | 143° |
| 2026-05-07 08:49 | 39.17667 | -76.67112 | 158 ft | 17 kts | 143° |
| 2026-05-07 08:50 | 39.17558 | -76.67007 | 159 ft | 18 kts | 138° |
| 2026-05-07 08:50 | 39.17523 | -76.66897 | 158 ft | 1 kts | 117° |
| 2026-05-07 08:50 | 39.17516 | -76.66876 | 158 ft | 0 kts | 109° |
| 2026-05-07 08:51 | 39.17516 | -76.66873 | 158 ft | 2 kts | 108° |
| 2026-05-07 08:51 | 39.17499 | -76.66839 | 158 ft | 8 kts | 146° |
| 2026-05-07 08:51 | 39.17460 | -76.66751 | 156 ft | 16 kts | 95° |
| 2026-05-07 08:52 | 39.17434 | -76.66602 | 156 ft | 18 kts | 140° |
| 2026-05-07 08:52 | 39.17286 | -76.66601 | 155 ft | 26 kts | 185° |
| 2026-05-07 08:52 | 39.17094 | -76.66613 | 154 ft | 29 kts | 165° |
| 2026-05-07 08:52 | 39.16929 | -76.66468 | 151 ft | 29 kts | 144° |
| 2026-05-07 08:53 | 39.16764 | -76.66314 | 145 ft | 29 kts | 144° |
| 2026-05-07 08:53 | 39.16654 | -76.66212 | 139 ft | 28 kts | 144° |
| 2026-05-07 08:53 | 39.16544 | -76.66114 | 139 ft | 13 kts | 158° |
| 2026-05-07 08:53 | 39.16482 | -76.66154 | 142 ft | 7 kts | 232° |
| 2026-05-07 08:54 | 39.16465 | -76.66183 | 145 ft | 1 kts | 232° |
| 2026-05-07 08:54 | 39.16463 | -76.66185 | 145 ft | 1 kts | 232° |
| 2026-05-07 08:54 | 39.16446 | -76.66219 | 146 ft | 9 kts | 246° |
| 2026-05-07 08:54 | 39.16491 | -76.66305 | 147 ft | 17 kts | 325° |
| 2026-05-07 08:55 | 39.16735 | -76.66529 | 146 ft | 79 kts | 324° |
| 2026-05-07 08:55 | 39.17360 | -76.67110 | 153 ft | 141 kts | 323° |
| 2026-05-07 08:55 | 39.18255 | -76.67910 | 483 ft | 164 kts | 325° |
| 2026-05-07 08:55 | 39.19181 | -76.68792 | 1295 ft | 165 kts | 325° |
| 2026-05-07 08:56 | 39.19990 | -76.69845 | 2121 ft | 172 kts | 308° |
| 2026-05-07 08:56 | 39.20503 | -76.71372 | 2645 ft | 201 kts | 286° |
| 2026-05-07 08:56 | 39.20680 | -76.73298 | 3161 ft | 231 kts | 277° |
| 2026-05-07 08:56 | 39.20760 | -76.75437 | 3893 ft | 247 kts | 276° |
| 2026-05-07 08:57 | 39.20871 | -76.77679 | 4655 ft | 253 kts | 275° |
| 2026-05-07 08:57 | 39.20868 | -76.79947 | 5396 ft | 250 kts | 264° |
| 2026-05-07 08:57 | 39.20700 | -76.82157 | 6556 ft | 248 kts | 263° |
| 2026-05-07 08:57 | 39.20542 | -76.84379 | 7611 ft | 249 kts | 263° |
| 2026-05-07 08:58 | 39.20389 | -76.86602 | 8646 ft | 251 kts | 263° |
| 2026-05-07 08:58 | 39.20239 | -76.88842 | 9698 ft | 249 kts | 263° |
| 2026-05-07 08:58 | 39.20092 | -76.91078 | 10545 ft | 256 kts | 263° |
| 2026-05-07 08:58 | 39.19935 | -76.93452 | 10973 ft | 276 kts | 263° |
| 2026-05-07 08:59 | 39.19769 | -76.95992 | 11448 ft | 292 kts | 263° |
| 2026-05-07 08:59 | 39.19907 | -76.98659 | 12043 ft | 306 kts | 278° |
| 2026-05-07 08:59 | 39.20326 | -77.01357 | 12909 ft | 308 kts | 277° |
| 2026-05-07 08:59 | 39.20736 | -77.04082 | 13760 ft | 311 kts | 277° |
| 2026-05-07 09:00 | 39.21153 | -77.06821 | 14549 ft | 312 kts | 277° |
| 2026-05-07 09:00 | 39.21576 | -77.09576 | 15381 ft | 313 kts | 276° |
| 2026-05-07 09:00 | 39.22099 | -77.12313 | 16166 ft | 321 kts | 285° |
| 2026-05-07 09:00 | 39.23306 | -77.14791 | 17035 ft | 335 kts | 302° |
| 2026-05-07 09:01 | 39.25047 | -77.16874 | 17856 ft | 344 kts | 307° |
| 2026-05-07 09:01 | 39.26853 | -77.18930 | 18518 ft | 348 kts | 307° |
| 2026-05-07 09:01 | 39.28681 | -77.20988 | 19155 ft | 350 kts | 307° |
| 2026-05-07 09:01 | 39.30526 | -77.23048 | 19832 ft | 352 kts | 307° |
| 2026-05-07 09:02 | 39.32378 | -77.25109 | 20532 ft | 352 kts | 307° |
| 2026-05-07 09:02 | 39.34235 | -77.27171 | 21247 ft | 352 kts | 306° |
| 2026-05-07 09:02 | 39.36019 | -77.29297 | 21886 ft | 342 kts | 297° |
| 2026-05-07 09:02 | 39.37194 | -77.31864 | 22365 ft | 329 kts | 284° |
| 2026-05-07 09:03 | 39.38127 | -77.34599 | 22803 ft | 334 kts | 284° |
| 2026-05-07 09:03 | 39.39036 | -77.37365 | 23416 ft | 335 kts | 284° |
| 2026-05-07 09:03 | 39.39924 | -77.40160 | 23892 ft | 337 kts | 283° |
| 2026-05-07 09:03 | 39.40802 | -77.42975 | 24374 ft | 338 kts | 283° |
| 2026-05-07 09:04 | 39.41675 | -77.45809 | 24840 ft | 340 kts | 283° |
| 2026-05-07 09:04 | 39.42544 | -77.48654 | 25291 ft | 341 kts | 282° |
| 2026-05-07 09:04 | 39.43415 | -77.51519 | 25734 ft | 343 kts | 282° |
| 2026-05-07 09:04 | 39.44288 | -77.54398 | 26192 ft | 345 kts | 282° |
| 2026-05-07 09:05 | 39.45165 | -77.57292 | 26632 ft | 347 kts | 282° |
| 2026-05-07 09:05 | 39.46046 | -77.60203 | 27083 ft | 348 kts | 282° |
| 2026-05-07 09:05 | 39.46929 | -77.63126 | 27503 ft | 350 kts | 282° |
| 2026-05-07 09:05 | 39.47816 | -77.66067 | 27930 ft | 352 kts | 282° |
| 2026-05-07 09:06 | 39.48709 | -77.69027 | 28338 ft | 354 kts | 282° |
| 2026-05-07 09:06 | 39.49604 | -77.72000 | 28726 ft | 356 kts | 282° |
| 2026-05-07 09:06 | 39.50502 | -77.74986 | 29109 ft | 358 kts | 282° |
| 2026-05-07 09:06 | 39.51408 | -77.77999 | 29498 ft | 360 kts | 282° |
| 2026-05-07 09:07 | 39.52317 | -77.81028 | 29886 ft | 361 kts | 281° |
| 2026-05-07 09:07 | 39.53224 | -77.84050 | 30357 ft | 359 kts | 281° |
| 2026-05-07 09:07 | 39.54141 | -77.87054 | 30846 ft | 357 kts | 282° |
| 2026-05-07 09:07 | 39.55057 | -77.90025 | 31333 ft | 354 kts | 281° |
| 2026-05-07 09:08 | 39.55965 | -77.92978 | 31827 ft | 351 kts | 281° |
| 2026-05-07 09:08 | 39.56862 | -77.95901 | 32341 ft | 348 kts | 281° |
| 2026-05-07 09:08 | 39.57753 | -77.98808 | 32857 ft | 345 kts | 281° |
| 2026-05-07 09:08 | 39.58633 | -78.01681 | 33390 ft | 341 kts | 281° |
| 2026-05-07 09:09 | 39.59504 | -78.04526 | 33911 ft | 338 kts | 280° |
| 2026-05-07 09:09 | 39.60366 | -78.07346 | 34338 ft | 335 kts | 280° |
| 2026-05-07 09:09 | 39.61220 | -78.10142 | 34723 ft | 333 kts | 280° |
| 2026-05-07 09:09 | 39.62069 | -78.12925 | 35067 ft | 331 kts | 281° |
| 2026-05-07 09:10 | 39.62913 | -78.15695 | 35433 ft | 329 kts | 281° |
| 2026-05-07 09:10 | 39.63752 | -78.18449 | 35783 ft | 328 kts | 281° |
| 2026-05-07 09:10 | 39.64587 | -78.21196 | 36118 ft | 326 kts | 281° |
| 2026-05-07 09:10 | 39.65418 | -78.23930 | 36442 ft | 325 kts | 281° |
| 2026-05-07 09:11 | 39.66243 | -78.26651 | 36840 ft | 323 kts | 280° |
| 2026-05-07 09:11 | 39.67064 | -78.29361 | 37160 ft | 322 kts | 281° |
| 2026-05-07 09:11 | 39.67872 | -78.32028 | 37447 ft | 321 kts | 281° |
| 2026-05-07 09:11 | 39.68687 | -78.34718 | 37735 ft | 320 kts | 281° |
| 2026-05-07 09:12 | 39.69498 | -78.37403 | 37947 ft | 320 kts | 281° |
| 2026-05-07 09:12 | 39.70309 | -78.40090 | 37954 ft | 319 kts | 281° |
| 2026-05-07 09:12 | 39.71918 | -78.45424 | 37962 ft | 317 kts | 281° |
| 2026-05-07 09:13 | 39.73521 | -78.50753 | 37965 ft | 317 kts | 280° |
| 2026-05-07 09:13 | 39.75125 | -78.56093 | 37956 ft | 317 kts | 281° |
| 2026-05-07 09:14 | 39.76728 | -78.61442 | 37956 ft | 318 kts | 281° |
| 2026-05-07 09:14 | 39.78329 | -78.66794 | 37963 ft | 318 kts | 281° |
| 2026-05-07 09:15 | 39.79927 | -78.72148 | 37981 ft | 319 kts | 280° |
| 2026-05-07 09:15 | 39.81532 | -78.77534 | 38002 ft | 319 kts | 280° |
| 2026-05-07 09:16 | 39.83135 | -78.82926 | 38003 ft | 320 kts | 280° |
| 2026-05-07 09:16 | 39.84734 | -78.88313 | 37980 ft | 319 kts | 280° |
| 2026-05-07 09:17 | 39.86329 | -78.93701 | 37986 ft | 319 kts | 280° |
| 2026-05-07 09:17 | 39.87921 | -78.99086 | 37981 ft | 319 kts | 280° |
| 2026-05-07 09:18 | 39.89509 | -79.04472 | 37979 ft | 319 kts | 280° |
| 2026-05-07 09:18 | 39.91096 | -79.09862 | 37988 ft | 319 kts | 280° |
| 2026-05-07 09:19 | 39.92683 | -79.15265 | 37991 ft | 319 kts | 280° |
| 2026-05-07 09:19 | 39.94269 | -79.20677 | 37991 ft | 320 kts | 280° |
| 2026-05-07 09:20 | 39.95852 | -79.26088 | 37988 ft | 319 kts | 280° |
| 2026-05-07 09:20 | 39.97423 | -79.31464 | 37990 ft | 320 kts | 280° |
| 2026-05-07 09:21 | 39.99004 | -79.36886 | 38047 ft | 320 kts | 280° |
| 2026-05-07 09:21 | 40.00800 | -79.42205 | 37992 ft | 332 kts | 290° |
| 2026-05-07 09:22 | 40.03339 | -79.47244 | 37967 ft | 331 kts | 289° |
| 2026-05-07 09:22 | 40.05897 | -79.52281 | 38018 ft | 334 kts | 290° |
| 2026-05-07 09:23 | 40.08472 | -79.57310 | 37995 ft | 333 kts | 290° |
| 2026-05-07 09:23 | 40.11048 | -79.62340 | 37995 ft | 333 kts | 290° |
| 2026-05-07 09:24 | 40.13623 | -79.67377 | 37995 ft | 333 kts | 290° |
| 2026-05-07 09:24 | 40.16196 | -79.72416 | 37991 ft | 333 kts | 290° |
| 2026-05-07 09:25 | 40.18769 | -79.77461 | 37991 ft | 333 kts | 290° |
| 2026-05-07 09:25 | 40.21339 | -79.82512 | 38005 ft | 333 kts | 290° |
| 2026-05-07 09:26 | 40.23898 | -79.87549 | 37994 ft | 333 kts | 290° |
| 2026-05-07 09:26 | 40.26460 | -79.92597 | 37990 ft | 333 kts | 290° |
| 2026-05-07 09:27 | 40.28998 | -79.97608 | 37997 ft | 333 kts | 290° |
| 2026-05-07 09:28 | 40.32835 | -80.05196 | 37992 ft | 333 kts | 289° |
| 2026-05-07 09:28 | 40.35385 | -80.10253 | 37986 ft | 333 kts | 289° |
| 2026-05-07 09:29 | 40.37936 | -80.15317 | 37986 ft | 333 kts | 289° |
| 2026-05-07 09:29 | 40.40489 | -80.20395 | 37993 ft | 334 kts | 290° |
| 2026-05-07 09:30 | 40.43042 | -80.25480 | 37984 ft | 334 kts | 289° |
| 2026-05-07 09:30 | 40.45597 | -80.30577 | 37991 ft | 334 kts | 289° |
| 2026-05-07 09:31 | 40.48149 | -80.35678 | 37995 ft | 334 kts | 289° |
| 2026-05-07 09:31 | 40.50699 | -80.40783 | 37993 ft | 334 kts | 289° |
| 2026-05-07 09:32 | 40.53253 | -80.45902 | 38011 ft | 336 kts | 290° |
| 2026-05-07 09:32 | 40.55816 | -80.51052 | 38014 ft | 337 kts | 290° |
| 2026-05-07 09:33 | 40.58382 | -80.56211 | 38018 ft | 338 kts | 290° |
| 2026-05-07 09:33 | 40.60594 | -80.61545 | 38010 ft | 331 kts | 285° |
| 2026-05-07 09:34 | 40.62676 | -80.66948 | 38028 ft | 331 kts | 285° |
| 2026-05-07 09:34 | 40.64777 | -80.72348 | 38026 ft | 332 kts | 285° |
| 2026-05-07 09:35 | 40.66881 | -80.77754 | 38025 ft | 332 kts | 285° |
| 2026-05-07 09:35 | 40.68971 | -80.83129 | 38023 ft | 332 kts | 285° |
| 2026-05-07 09:36 | 40.71071 | -80.88541 | 38028 ft | 332 kts | 285° |
| 2026-05-07 09:36 | 40.73169 | -80.93958 | 38040 ft | 332 kts | 285° |
| 2026-05-07 09:37 | 40.75268 | -80.99388 | 38022 ft | 332 kts | 285° |
| 2026-05-07 09:37 | 40.77366 | -81.04824 | 38025 ft | 333 kts | 285° |
| 2026-05-07 09:38 | 40.79464 | -81.10271 | 38052 ft | 334 kts | 285° |
| 2026-05-07 09:38 | 40.81583 | -81.15783 | 38006 ft | 338 kts | 285° |
| 2026-05-07 09:39 | 40.83363 | -81.20420 | 38001 ft | 338 kts | 285° |
| 2026-05-07 09:39 | 40.85485 | -81.25960 | 37994 ft | 338 kts | 285° |
| 2026-05-07 09:40 | 40.87592 | -81.31468 | 37993 ft | 340 kts | 286° |
| 2026-05-07 09:40 | 40.89727 | -81.37062 | 37999 ft | 341 kts | 286° |
| 2026-05-07 09:41 | 40.91860 | -81.42662 | 37988 ft | 341 kts | 286° |
| 2026-05-07 09:41 | 40.93993 | -81.48270 | 37986 ft | 341 kts | 286° |
| 2026-05-07 09:42 | 40.96122 | -81.53882 | 37990 ft | 341 kts | 286° |
| 2026-05-07 09:42 | 40.98249 | -81.59498 | 37472 ft | 340 kts | 285° |
| 2026-05-07 09:42 | 40.99306 | -81.62294 | 36846 ft | 338 kts | 285° |
| 2026-05-07 09:43 | 41.00349 | -81.65050 | 36427 ft | 331 kts | 284° |
| 2026-05-07 09:43 | 41.01370 | -81.67753 | 36040 ft | 325 kts | 284° |
| 2026-05-07 09:43 | 41.02371 | -81.70407 | 35648 ft | 318 kts | 283° |
| 2026-05-07 09:43 | 41.03348 | -81.72997 | 35276 ft | 311 kts | 283° |
| 2026-05-07 09:44 | 41.04322 | -81.75593 | 34921 ft | 319 kts | 283° |
| 2026-05-07 09:44 | 41.05319 | -81.78244 | 34560 ft | 324 kts | 283° |
| 2026-05-07 09:44 | 41.06333 | -81.80941 | 34265 ft | 330 kts | 283° |
| 2026-05-07 09:44 | 41.07361 | -81.83682 | 33855 ft | 333 kts | 283° |
| 2026-05-07 09:45 | 41.08395 | -81.86435 | 33407 ft | 335 kts | 283° |
| 2026-05-07 09:45 | 41.09432 | -81.89201 | 32921 ft | 334 kts | 283° |
| 2026-05-07 09:45 | 41.10462 | -81.91952 | 32423 ft | 332 kts | 283° |
| 2026-05-07 09:45 | 41.11487 | -81.94693 | 31942 ft | 331 kts | 283° |
| 2026-05-07 09:46 | 41.12507 | -81.97421 | 31471 ft | 330 kts | 283° |
| 2026-05-07 09:46 | 41.13522 | -82.00140 | 31011 ft | 329 kts | 283° |
| 2026-05-07 09:46 | 41.14533 | -82.02853 | 30562 ft | 328 kts | 283° |
| 2026-05-07 09:46 | 41.15542 | -82.05560 | 30104 ft | 327 kts | 283° |
| 2026-05-07 09:47 | 41.16548 | -82.08259 | 29570 ft | 326 kts | 284° |
| 2026-05-07 09:47 | 41.17548 | -82.10945 | 29093 ft | 325 kts | 284° |
| 2026-05-07 09:47 | 41.18548 | -82.13634 | 28644 ft | 324 kts | 284° |
| 2026-05-07 09:47 | 41.19540 | -82.16306 | 28222 ft | 323 kts | 284° |
| 2026-05-07 09:48 | 41.20534 | -82.18983 | 27793 ft | 322 kts | 285° |
| 2026-05-07 09:48 | 41.21526 | -82.21656 | 27218 ft | 323 kts | 285° |
| 2026-05-07 09:48 | 41.22696 | -82.24191 | 26630 ft | 338 kts | 298° |
| 2026-05-07 09:48 | 41.24481 | -82.26345 | 26173 ft | 349 kts | 306° |
| 2026-05-07 09:49 | 41.26363 | -82.28397 | 25759 ft | 352 kts | 307° |
| 2026-05-07 09:49 | 41.28270 | -82.30443 | 25298 ft | 352 kts | 308° |
| 2026-05-07 09:49 | 41.30184 | -82.32474 | 24830 ft | 351 kts | 308° |
| 2026-05-07 09:49 | 41.32096 | -82.34489 | 24385 ft | 350 kts | 309° |
| 2026-05-07 09:50 | 41.34004 | -82.36494 | 23897 ft | 348 kts | 309° |
| 2026-05-07 09:50 | 41.35901 | -82.38486 | 23411 ft | 347 kts | 310° |
| 2026-05-07 09:50 | 41.37791 | -82.40474 | 22896 ft | 345 kts | 310° |
| 2026-05-07 09:50 | 41.39670 | -82.42449 | 22398 ft | 343 kts | 310° |
| 2026-05-07 09:51 | 41.41531 | -82.44408 | 21936 ft | 340 kts | 310° |
| 2026-05-07 09:51 | 41.43375 | -82.46350 | 21485 ft | 337 kts | 311° |
| 2026-05-07 09:51 | 41.45202 | -82.48276 | 21037 ft | 334 kts | 311° |
| 2026-05-07 09:51 | 41.47023 | -82.50196 | 20591 ft | 332 kts | 311° |
| 2026-05-07 09:52 | 41.48825 | -82.52097 | 20145 ft | 330 kts | 311° |
| 2026-05-07 09:52 | 41.50623 | -82.53996 | 19644 ft | 330 kts | 311° |
| 2026-05-07 09:52 | 41.52421 | -82.55896 | 19194 ft | 329 kts | 312° |
| 2026-05-07 09:52 | 41.54209 | -82.57788 | 18800 ft | 327 kts | 313° |
| 2026-05-07 09:53 | 41.55991 | -82.59673 | 18352 ft | 326 kts | 313° |
| 2026-05-07 09:53 | 41.57769 | -82.61557 | 17845 ft | 326 kts | 313° |
| 2026-05-07 09:53 | 41.59537 | -82.63431 | 17378 ft | 324 kts | 314° |
| 2026-05-07 09:53 | 41.61293 | -82.65294 | 16949 ft | 321 kts | 314° |
| 2026-05-07 09:54 | 41.63033 | -82.67141 | 16522 ft | 318 kts | 314° |
| 2026-05-07 09:54 | 41.64761 | -82.68977 | 16101 ft | 316 kts | 314° |
| 2026-05-07 09:54 | 41.66478 | -82.70802 | 15676 ft | 314 kts | 314° |
| 2026-05-07 09:54 | 41.68181 | -82.72614 | 15259 ft | 312 kts | 315° |
| 2026-05-07 09:55 | 41.69880 | -82.74422 | 14843 ft | 311 kts | 315° |
| 2026-05-07 09:55 | 41.71567 | -82.76219 | 14425 ft | 310 kts | 315° |
| 2026-05-07 09:55 | 41.73250 | -82.78012 | 14007 ft | 308 kts | 315° |
| 2026-05-07 09:55 | 41.74909 | -82.79821 | 13552 ft | 305 kts | 311° |
| 2026-05-07 09:56 | 41.76319 | -82.81912 | 13082 ft | 302 kts | 307° |
| 2026-05-07 09:56 | 41.77720 | -82.84001 | 12672 ft | 300 kts | 308° |
| 2026-05-07 09:56 | 41.79121 | -82.86062 | 12276 ft | 298 kts | 308° |
| 2026-05-07 09:56 | 41.80511 | -82.88091 | 11876 ft | 293 kts | 308° |
| 2026-05-07 09:57 | 41.81879 | -82.90079 | 11487 ft | 286 kts | 308° |
| 2026-05-07 09:57 | 41.83215 | -82.92015 | 11110 ft | 280 kts | 308° |
| 2026-05-07 09:57 | 41.84504 | -82.93881 | 10744 ft | 274 kts | 309° |
| 2026-05-07 09:57 | 41.85784 | -82.95735 | 10380 ft | 268 kts | 309° |
| 2026-05-07 09:58 | 41.87031 | -82.97559 | 10013 ft | 262 kts | 306° |
| 2026-05-07 09:58 | 41.87816 | -82.99688 | 9692 ft | 253 kts | 280° |
| 2026-05-07 09:58 | 41.87991 | -83.02007 | 9462 ft | 247 kts | 275° |
| 2026-05-07 09:58 | 41.88134 | -83.04272 | 9267 ft | 242 kts | 274° |
| 2026-05-07 09:59 | 41.88262 | -83.06529 | 9093 ft | 242 kts | 274° |
| 2026-05-07 09:59 | 41.88383 | -83.08790 | 9091 ft | 243 kts | 274° |
| 2026-05-07 09:59 | 41.88497 | -83.11059 | 9101 ft | 244 kts | 274° |
| 2026-05-07 09:59 | 41.88607 | -83.13334 | 9102 ft | 244 kts | 274° |
| 2026-05-07 10:00 | 41.88715 | -83.15606 | 9096 ft | 244 kts | 273° |
| 2026-05-07 10:00 | 41.88821 | -83.17878 | 9099 ft | 245 kts | 274° |
| 2026-05-07 10:00 | 41.88926 | -83.20165 | 9108 ft | 246 kts | 273° |
| 2026-05-07 10:00 | 41.88987 | -83.22460 | 9157 ft | 249 kts | 265° |
| 2026-05-07 10:01 | 41.88862 | -83.24762 | 10034 ft | 247 kts | 271° |
| 2026-05-07 10:01 | 41.88947 | -83.27095 | 10681 ft | 249 kts | 274° |
| 2026-05-07 10:01 | 41.89055 | -83.29362 | 10607 ft | 243 kts | 274° |
| 2026-05-07 10:01 | 41.89163 | -83.31642 | 10228 ft | 245 kts | 274° |
| 2026-05-07 10:02 | 41.89272 | -83.33924 | 9887 ft | 245 kts | 274° |
| 2026-05-07 10:02 | 41.89529 | -83.36175 | 9497 ft | 246 kts | 292° |
| 2026-05-07 10:02 | 41.90639 | -83.37907 | 9125 ft | 253 kts | 326° |
| 2026-05-07 10:02 | 41.92301 | -83.38709 | 9019 ft | 256 kts | 340° |
| 2026-05-07 10:03 | 41.93975 | -83.39516 | 8976 ft | 256 kts | 331° |
| 2026-05-07 10:03 | 41.95624 | -83.40470 | 9014 ft | 259 kts | 332° |
| 2026-05-07 10:03 | 41.97286 | -83.41402 | 8996 ft | 259 kts | 333° |
| 2026-05-07 10:03 | 41.98952 | -83.42322 | 8995 ft | 259 kts | 333° |
| 2026-05-07 10:04 | 42.00622 | -83.43237 | 8997 ft | 259 kts | 333° |
| 2026-05-07 10:04 | 42.02296 | -83.44147 | 9021 ft | 259 kts | 333° |
| 2026-05-07 10:04 | 42.03961 | -83.45049 | 9010 ft | 258 kts | 333° |
| 2026-05-07 10:04 | 42.05628 | -83.45951 | 9007 ft | 258 kts | 333° |
| 2026-05-07 10:05 | 42.07294 | -83.46851 | 9011 ft | 258 kts | 333° |
| 2026-05-07 10:05 | 42.08965 | -83.47754 | 9008 ft | 258 kts | 333° |
| 2026-05-07 10:05 | 42.10631 | -83.48645 | 9008 ft | 259 kts | 336° |
| 2026-05-07 10:05 | 42.12426 | -83.49067 | 8999 ft | 266 kts | 354° |
| 2026-05-07 10:06 | 42.14281 | -83.48770 | 9011 ft | 273 kts | 9° |
| 2026-05-07 10:06 | 42.16085 | -83.48034 | 8992 ft | 273 kts | 13° |
| 2026-05-07 10:06 | 42.17914 | -83.47232 | 8624 ft | 274 kts | 13° |
| 2026-05-07 10:06 | 42.19719 | -83.46450 | 8326 ft | 272 kts | 13° |
| 2026-05-07 10:07 | 42.21519 | -83.45680 | 8034 ft | 270 kts | 13° |
| 2026-05-07 10:07 | 42.23310 | -83.44921 | 8007 ft | 270 kts | 13° |
| 2026-05-07 10:07 | 42.25107 | -83.44163 | 8012 ft | 271 kts | 13° |
| 2026-05-07 10:07 | 42.26913 | -83.43420 | 7998 ft | 270 kts | 10° |
| 2026-05-07 10:08 | 42.28706 | -83.42809 | 7996 ft | 270 kts | 9° |
| 2026-05-07 10:08 | 42.30518 | -83.42186 | 7886 ft | 267 kts | 9° |
| 2026-05-07 10:08 | 42.32324 | -83.41555 | 7540 ft | 268 kts | 10° |
| 2026-05-07 10:08 | 42.34123 | -83.40922 | 7228 ft | 267 kts | 10° |
| 2026-05-07 10:09 | 42.35914 | -83.40290 | 7014 ft | 265 kts | 11° |
| 2026-05-07 10:09 | 42.37705 | -83.39656 | 6870 ft | 266 kts | 11° |
| 2026-05-07 10:09 | 42.39494 | -83.39021 | 6685 ft | 266 kts | 11° |
| 2026-05-07 10:09 | 42.41282 | -83.38383 | 6506 ft | 265 kts | 12° |
| 2026-05-07 10:10 | 42.42903 | -83.37203 | 6291 ft | 271 kts | 43° |
| 2026-05-07 10:10 | 42.43790 | -83.34997 | 6076 ft | 269 kts | 79° |
| 2026-05-07 10:10 | 42.43610 | -83.32552 | 5964 ft | 261 kts | 115° |
| 2026-05-07 10:10 | 42.42752 | -83.30388 | 6003 ft | 261 kts | 122° |
| 2026-05-07 10:11 | 42.41830 | -83.28267 | 5673 ft | 262 kts | 122° |
| 2026-05-07 10:11 | 42.40903 | -83.26162 | 5429 ft | 258 kts | 126° |
| 2026-05-07 10:11 | 42.39652 | -83.24487 | 5074 ft | 253 kts | 153° |
| 2026-05-07 10:11 | 42.38006 | -83.23755 | 4653 ft | 248 kts | 180° |
| 2026-05-07 10:12 | 42.36350 | -83.24102 | 4245 ft | 239 kts | 207° |
| 2026-05-07 10:12 | 42.35037 | -83.25401 | 3854 ft | 232 kts | 231° |
| 2026-05-07 10:12 | 42.34007 | -83.27047 | 3469 ft | 227 kts | 230° |
| 2026-05-07 10:12 | 42.32892 | -83.28530 | 3132 ft | 223 kts | 224° |
| 2026-05-07 10:13 | 42.31694 | -83.29774 | 2905 ft | 211 kts | 217° |
| 2026-05-07 10:13 | 42.30461 | -83.30775 | 2573 ft | 203 kts | 213° |
| 2026-05-07 10:13 | 42.29257 | -83.31667 | 2264 ft | 190 kts | 213° |
| 2026-05-07 10:13 | 42.28147 | -83.32496 | 1990 ft | 175 kts | 213° |
| 2026-05-07 10:14 | 42.27127 | -83.33259 | 1771 ft | 159 kts | 213° |
| 2026-05-07 10:14 | 42.26203 | -83.33953 | 1594 ft | 150 kts | 213° |
| 2026-05-07 10:14 | 42.25300 | -83.34628 | 1342 ft | 147 kts | 212° |
| 2026-05-07 10:14 | 42.24414 | -83.35291 | 1117 ft | 144 kts | 211° |
| 2026-05-07 10:15 | 42.23542 | -83.35943 | 923 ft | 143 kts | 212° |
| 2026-05-07 10:15 | 42.22671 | -83.36597 | 726 ft | 143 kts | 211° |
| 2026-05-07 10:15 | 42.21840 | -83.37218 | 650 ft | 119 kts | 207° |
| 2026-05-07 10:15 | 42.21275 | -83.37630 | 653 ft | 75 kts | 207° |
| 2026-05-07 10:16 | 42.20898 | -83.37904 | 651 ft | 51 kts | 207° |
| 2026-05-07 10:16 | 42.20693 | -83.38005 | 653 ft | 27 kts | 175° |
| 2026-05-07 10:16 | 42.20514 | -83.37955 | 652 ft | 25 kts | 178° |
| 2026-05-07 10:16 | 42.20358 | -83.38049 | 655 ft | 26 kts | 206° |
| 2026-05-07 10:17 | 42.20197 | -83.38160 | 652 ft | 24 kts | 207° |
| 2026-05-07 10:17 | 42.20094 | -83.38066 | 655 ft | 21 kts | 120° |
| 2026-05-07 10:17 | 42.19977 | -83.37938 | 653 ft | 23 kts | 151° |
| 2026-05-07 10:17 | 42.19832 | -83.37796 | 651 ft | 28 kts | 127° |
| 2026-05-07 10:18 | 42.19731 | -83.37556 | 653 ft | 30 kts | 119° |
| 2026-05-07 10:18 | 42.19638 | -83.37322 | 654 ft | 27 kts | 117° |
| 2026-05-07 10:18 | 42.19602 | -83.37073 | 652 ft | 29 kts | 70° |
| 2026-05-07 10:18 | 42.19752 | -83.36897 | 652 ft | 28 kts | 29° |
| 2026-05-07 10:19 | 42.19923 | -83.36772 | 653 ft | 29 kts | 28° |
| 2026-05-07 10:19 | 42.20103 | -83.36639 | 651 ft | 30 kts | 28° |
| 2026-05-07 10:19 | 42.20287 | -83.36502 | 652 ft | 29 kts | 30° |
| 2026-05-07 10:19 | 42.20465 | -83.36370 | 653 ft | 29 kts | 29° |
| 2026-05-07 10:20 | 42.20636 | -83.36242 | 651 ft | 23 kts | 30° |
| 2026-05-07 10:20 | 42.20784 | -83.36133 | 655 ft | 25 kts | 28° |
| 2026-05-07 10:20 | 42.20945 | -83.36017 | 652 ft | 27 kts | 28° |
| 2026-05-07 10:20 | 42.21116 | -83.35893 | 651 ft | 29 kts | 28° |
| 2026-05-07 10:21 | 42.21289 | -83.35766 | 654 ft | 27 kts | 28° |
| 2026-05-07 10:21 | 42.21456 | -83.35641 | 651 ft | 28 kts | 27° |
| 2026-05-07 10:21 | 42.21554 | -83.35517 | 653 ft | 19 kts | 44° |
| 2026-05-07 10:21 | 42.21692 | -83.35485 | 650 ft | 22 kts | 360° |
| 2026-05-07 10:22 | 42.21847 | -83.35508 | 653 ft | 23 kts | 333° |
| 2026-05-07 10:22 | 42.21979 | -83.35637 | 652 ft | 25 kts | 338° |
| 2026-05-07 10:22 | 42.22136 | -83.35556 | 652 ft | 26 kts | 29° |
| 2026-05-07 10:22 | 42.22296 | -83.35439 | 652 ft | 27 kts | 28° |
| 2026-05-07 10:23 | 42.22468 | -83.35316 | 652 ft | 29 kts | 27° |
| 2026-05-07 10:23 | 42.22644 | -83.35183 | 654 ft | 27 kts | 31° |
| 2026-05-07 10:23 | 42.22687 | -83.35066 | 655 ft | 15 kts | 103° |
| 2026-05-07 10:23 | 42.22707 | -83.34931 | 653 ft | 16 kts | 41° |
| 2026-05-07 10:24 | 42.22809 | -83.34848 | 653 ft | 18 kts | 31° |
| 2026-05-07 10:24 | 42.22855 | -83.34801 | 652 ft | 2 kts | 87° |
| 2026-05-07 10:24 | 42.22839 | -83.34776 | 651 ft | 6 kts | 125° |
| 2026-05-07 10:24 | 42.22825 | -83.34742 | 653 ft | 2 kts | 118° |
| 2026-05-07 10:25 | 42.22824 | -83.34739 | 653 ft | 0 kts | 118° |